Time;durP1;ratioP1;P1;durP2;ratioP2;P2;SDS_P1;SDS_P2;PMS_P1;PMS_P2;Temp;Humidity;BMP_temperature;BMP_pressure;BME280_temperature;BME280_humidity;BME280_pressure;Samples;Min_cycle;Max_cycle;Signal;HPM_P1;HPM_P2
2022/08/09 00:02:25;;;;;;;3.73;2.60;;;18.60;73.10;;;;;;4986599;28;20184;-63
2022/08/09 00:04:50;;;;;;;2.50;2.20;;;18.70;73.60;;;;;;4989005;28;20683;-63
2022/08/09 00:07:16;;;;;;;2.47;2.10;;;18.80;74.10;;;;;;4982595;28;20206;-63
2022/08/09 00:09:41;;;;;;;2.50;2.30;;;18.80;73.30;;;;;;4990630;28;20281;-61
2022/08/09 00:12:08;;;;;;;3.10;2.87;;;18.60;73.70;;;;;;4989244;28;20227;-63
2022/08/09 00:14:34;;;;;;;2.40;2.20;;;18.60;74.10;;;;;;4991040;28;20187;-63
2022/08/09 00:16:59;;;;;;;2.23;2.13;;;18.60;74.60;;;;;;4985108;28;20566;-63
2022/08/09 00:19:25;;;;;;;2.23;2.13;;;18.70;74.70;;;;;;4990149;28;20182;-63
2022/08/09 00:21:50;;;;;;;2.60;2.40;;;18.60;74.20;;;;;;4985235;28;20188;-63
2022/08/09 00:24:16;;;;;;;2.70;2.30;;;18.50;74.60;;;;;;4990347;28;20222;-63
2022/08/09 00:26:42;;;;;;;2.23;2.10;;;18.40;75.20;;;;;;4990497;28;20187;-63
2022/08/09 00:29:07;;;;;;;2.47;2.30;;;18.40;75.80;;;;;;4989096;28;20211;-63
2022/08/09 00:31:33;;;;;;;3.00;2.80;;;18.40;75.70;;;;;;4990331;28;20215;-63
2022/08/09 00:33:58;;;;;;;3.07;2.00;;;18.40;76.00;;;;;;4989707;28;20176;-63
2022/08/09 00:36:24;;;;;;;2.83;2.60;;;18.30;76.30;;;;;;4989356;28;20216;-63
2022/08/09 00:38:50;;;;;;;3.90;2.40;;;18.30;78.40;;;;;;4984504;28;20207;-63
2022/08/09 00:41:19;;;;;;;2.70;2.50;;;18.30;79.30;;;;;;4985686;28;20608;-63
2022/08/09 00:43:45;;;;;;;3.50;2.70;;;18.40;78.50;;;;;;4990889;28;20514;-63
2022/08/09 00:46:10;;;;;;;2.40;2.20;;;18.30;78.30;;;;;;4995459;28;20613;-62
2022/08/09 00:48:36;;;;;;;2.87;2.57;;;18.30;78.70;;;;;;4990090;28;20219;-63
2022/08/09 00:51:04;;;;;;;2.43;2.23;;;18.20;79.30;;;;;;4984251;28;20183;-63
2022/08/09 00:53:30;;;;;;;4.70;2.47;;;18.20;79.50;;;;;;4994844;28;20183;-63
2022/08/09 00:55:56;;;;;;;2.53;2.43;;;18.20;79.60;;;;;;4999029;28;20226;-62
2022/08/09 00:58:21;;;;;;;2.63;2.43;;;18.20;80.20;;;;;;4992234;28;20416;-63
2022/08/09 01:00:52;;;;;;;2.30;2.10;;;18.40;80.90;;;;;;4992612;28;20187;-63
2022/08/09 01:03:38;;;;;;;3.22;2.80;;;18.00;81.10;;;;;;4993415;28;20182;-63
2022/08/09 01:06:10;;;;;;;2.30;2.10;;;17.90;81.40;;;;;;4989736;28;20589;-63
2022/08/09 01:09:01;;;;;;;2.58;2.20;;;17.80;81.80;;;;;;4997591;28;20297;-63
2022/08/09 01:11:51;;;;;;;2.17;2.03;;;17.80;82.60;;;;;;4991492;28;20226;-63
2022/08/09 01:14:33;;;;;;;2.35;2.25;;;17.70;83.10;;;;;;4991507;28;20625;-63
2022/08/09 01:17:08;;;;;;;2.30;2.10;;;17.70;83.10;;;;;;4988110;28;20568;-63
2022/08/09 01:19:50;;;;;;;2.38;2.17;;;17.70;83.60;;;;;;4991175;28;20546;-62
2022/08/09 01:22:35;;;;;;;2.25;2.15;;;17.20;83.70;;;;;;4986593;28;20184;-63
2022/08/09 01:25:33;;;;;;;2.40;2.30;;;17.50;85.00;;;;;;4994298;28;20199;-63
2022/08/09 01:28:02;;;;;;;3.10;2.80;;;17.40;85.40;;;;;;4993075;28;20199;-64
2022/08/09 01:30:30;;;;;;;2.50;2.40;;;17.50;86.00;;;;;;4993283;28;20712;-63
2022/08/09 01:32:58;;;;;;;5.25;2.28;;;17.50;86.00;;;;;;4993631;28;20207;-63
2022/08/09 01:35:29;;;;;;;2.60;2.50;;;17.50;86.30;;;;;;4994230;28;20581;-63
2022/08/09 01:37:59;;;;;;;3.17;2.60;;;17.50;86.30;;;;;;4985622;28;20673;-63
2022/08/09 01:40:27;;;;;;;2.70;2.50;;;17.40;88.00;;;;;;4988280;28;20183;-62
2022/08/09 01:42:54;;;;;;;2.60;2.40;;;17.50;88.70;;;;;;4993834;28;20238;-63
2022/08/09 01:45:21;;;;;;;2.53;2.33;;;17.50;87.20;;;;;;4988405;28;20192;-63
2022/08/09 01:47:47;;;;;;;5.03;2.60;;;17.40;87.10;;;;;;4992317;28;20251;-63
2022/08/09 01:50:14;;;;;;;2.72;2.55;;;17.40;87.80;;;;;;4992898;28;20191;-63
2022/08/09 01:52:42;;;;;;;2.88;2.20;;;17.40;88.10;;;;;;4991587;28;20220;-62
2022/08/09 01:55:09;;;;;;;2.80;2.60;;;17.40;88.30;;;;;;4993756;28;20669;-61
2022/08/09 01:57:42;;;;;;;2.67;2.50;;;17.30;88.50;;;;;;4991422;28;20211;-63
2022/08/09 02:00:09;;;;;;;4.07;2.70;;;17.20;89.20;;;;;;4987833;28;20175;-62
2022/08/09 02:02:40;;;;;;;3.35;3.05;;;17.10;89.70;;;;;;4989274;28;20246;-60
2022/08/09 02:05:10;;;;;;;2.72;2.30;;;17.20;89.80;;;;;;4991340;28;20249;-63
2022/08/09 02:07:54;;;;;;;2.53;2.33;;;17.20;90.00;;;;;;4990865;28;20299;-61
2022/08/09 02:10:24;;;;;;;2.70;2.50;;;17.20;90.10;;;;;;4985282;28;20554;-61
2022/08/09 02:12:52;;;;;;;2.40;2.30;;;17.10;90.30;;;;;;4986578;28;20192;-61
2022/08/09 02:15:19;;;;;;;2.75;2.60;;;17.10;90.50;;;;;;4991643;28;20653;-61
2022/08/09 02:17:46;;;;;;;2.80;2.60;;;17.00;90.60;;;;;;4991855;28;20604;-61
2022/08/09 02:20:12;;;;;;;2.95;2.40;;;17.00;90.80;;;;;;4988797;28;20180;-61
2022/08/09 02:23:15;;;;;;;6.03;2.80;;;17.00;90.90;;;;;;4991305;28;20200;-62
2022/08/09 02:25:42;;;;;;;3.17;2.85;;;17.20;91.10;;;;;;4944006;29;20439;-62
2022/08/09 02:28:36;;;;;;;2.55;2.35;;;16.90;91.00;;;;;;4973629;28;20267;-62
2022/08/09 02:31:04;;;;;;;3.47;2.70;;;17.20;91.30;;;;;;4991295;28;20184;-62
2022/08/09 02:33:35;;;;;;;2.97;2.65;;;16.90;91.50;;;;;;4985251;28;20188;-62
2022/08/09 02:36:05;;;;;;;2.72;2.47;;;16.90;91.60;;;;;;4997881;28;20278;-62
2022/08/09 02:38:44;;;;;;;2.45;2.25;;;17.00;92.00;;;;;;4992379;28;20231;-61
2022/08/09 02:41:12;;;;;;;2.30;2.20;;;16.90;92.10;;;;;;4991174;28;20669;-62
2022/08/09 02:43:41;;;;;;;5.25;2.80;;;16.80;92.00;;;;;;4992323;28;20270;-61
2022/08/09 02:46:09;;;;;;;2.58;2.47;;;16.90;92.00;;;;;;4990057;28;20609;-61
2022/08/09 02:48:36;;;;;;;3.10;2.90;;;16.90;92.20;;;;;;4992417;28;20219;-61
2022/08/09 02:51:04;;;;;;;3.78;2.60;;;16.80;92.20;;;;;;4991637;28;20529;-62
2022/08/09 02:53:38;;;;;;;3.20;2.95;;;16.70;92.20;;;;;;4982423;28;20526;-62
2022/08/09 02:56:07;;;;;;;2.80;2.60;;;16.80;92.50;;;;;;4981284;28;20243;-62
2022/08/09 02:58:34;;;;;;;3.47;2.63;;;16.40;92.40;;;;;;4991191;28;20226;-62
2022/08/09 03:01:01;;;;;;;2.70;2.50;;;16.50;92.80;;;;;;5013141;23;20228;-62
2022/08/09 03:03:29;;;;;;;3.25;3.00;;;16.50;92.90;;;;;;5006991;28;20178;-63
2022/08/09 03:05:57;;;;;;;3.40;3.10;;;16.40;93.10;;;;;;5009696;28;20702;-63
2022/08/09 03:08:24;;;;;;;2.75;2.55;;;16.60;93.20;;;;;;5011099;28;20202;-62
2022/08/09 03:10:50;;;;;;;2.97;2.60;;;16.40;93.30;;;;;;5006858;28;20575;-62
2022/08/09 03:13:19;;;;;;;3.05;2.75;;;16.20;93.20;;;;;;5011434;28;20270;-64
2022/08/09 03:15:46;;;;;;;3.78;2.72;;;16.50;93.40;;;;;;5004532;28;20211;-65
2022/08/09 03:18:13;;;;;;;3.10;2.60;;;16.30;93.60;;;;;;5010009;28;20699;-65
2022/08/09 03:20:40;;;;;;;2.90;2.70;;;16.60;93.70;;;;;;5008228;28;20241;-64
2022/08/09 03:23:06;;;;;;;2.90;2.70;;;16.20;93.80;;;;;;5010989;28;20194;-64
2022/08/09 03:25:33;;;;;;;2.95;2.75;;;16.20;94.00;;;;;;5009488;28;20194;-63
2022/08/09 03:28:00;;;;;;;3.05;2.88;;;16.30;94.30;;;;;;5010857;28;20702;-64
2022/08/09 03:30:27;;;;;;;3.85;3.28;;;16.20;94.40;;;;;;5007343;28;20544;-64
2022/08/09 03:32:54;;;;;;;2.72;2.55;;;16.40;94.50;;;;;;5011127;28;20199;-64
2022/08/09 03:35:20;;;;;;;3.20;3.00;;;16.30;94.50;;;;;;5010568;28;20290;-64
2022/08/09 03:37:46;;;;;;;2.90;2.70;;;16.30;94.60;;;;;;5006395;28;20688;-64
2022/08/09 03:40:12;;;;;;;4.07;3.47;;;16.00;95.10;;;;;;5009470;28;20453;-65
2022/08/09 03:42:38;;;;;;;3.40;3.10;;;16.30;95.40;;;;;;5009505;28;20654;-65
2022/08/09 03:45:05;;;;;;;2.90;2.60;;;16.20;95.00;;;;;;5010073;28;20190;-64
2022/08/09 03:47:30;;;;;;;3.40;3.15;;;16.20;95.00;;;;;;5008808;28;21056;-64
2022/08/09 03:49:58;;;;;;;3.30;3.00;;;16.10;94.90;;;;;;5004847;28;20275;-64
2022/08/09 03:52:25;;;;;;;3.38;3.00;;;16.20;95.10;;;;;;5009700;28;20219;-64
2022/08/09 03:54:52;;;;;;;3.08;2.88;;;16.20;95.00;;;;;;5009780;28;20229;-63
2022/08/09 03:57:20;;;;;;;3.25;3.05;;;16.40;95.20;;;;;;5009654;28;20197;-63
2022/08/09 03:59:47;;;;;;;3.88;3.35;;;16.30;95.20;;;;;;5008580;28;20186;-63
2022/08/09 04:02:12;;;;;;;3.65;3.20;;;16.20;95.40;;;;;;5008670;28;20213;-63
2022/08/09 04:04:38;;;;;;;3.63;3.33;;;16.10;95.50;;;;;;5009024;28;20789;-63
2022/08/09 04:07:04;;;;;;;3.40;3.10;;;16.10;95.70;;;;;;5005335;28;20222;-64
2022/08/09 04:09:31;;;;;;;3.75;3.28;;;16.10;95.90;;;;;;5008026;28;20254;-62
2022/08/09 04:12:40;;;;;;;4.05;3.75;;;16.10;95.90;;;;;;5009735;28;20178;-62
2022/08/09 04:15:07;;;;;;;3.38;3.00;;;16.10;96.00;;;;;;4994234;28;20365;-62
2022/08/09 04:17:32;;;;;;;3.60;3.30;;;16.00;96.00;;;;;;5013390;28;20685;-62
2022/08/09 04:19:58;;;;;;;4.27;3.40;;;15.90;96.10;;;;;;5009444;28;20186;-62
2022/08/09 04:22:24;;;;;;;3.73;3.43;;;15.90;96.20;;;;;;5007006;28;20222;-62
2022/08/09 04:24:49;;;;;;;3.47;3.17;;;15.60;96.20;;;;;;5010191;28;20194;-62
2022/08/09 04:27:15;;;;;;;3.60;3.20;;;15.90;96.70;;;;;;5009724;28;20210;-62
2022/08/09 04:29:41;;;;;;;3.40;3.17;;;16.20;96.90;;;;;;5008547;28;20454;-62
2022/08/09 04:32:06;;;;;;;4.40;3.40;;;16.30;96.50;;;;;;5006703;28;20222;-62
2022/08/09 04:34:33;;;;;;;3.60;3.30;;;15.90;96.30;;;;;;5003683;28;20564;-62
2022/08/09 04:37:00;;;;;;;3.40;3.10;;;16.10;96.30;;;;;;5004911;28;20838;-62
2022/08/09 04:39:25;;;;;;;3.50;3.22;;;16.10;96.80;;;;;;5004951;28;20538;-62
2022/08/09 04:41:51;;;;;;;4.77;4.00;;;16.30;97.00;;;;;;5005733;28;20193;-62
2022/08/09 04:44:17;;;;;;;3.83;3.63;;;16.10;96.50;;;;;;5006391;28;20557;-62
2022/08/09 04:46:43;;;;;;;3.57;3.27;;;16.00;96.60;;;;;;5003859;28;20437;-62
2022/08/09 04:49:08;;;;;;;7.00;4.03;;;16.10;96.50;;;;;;5008596;28;20202;-62
2022/08/09 04:51:34;;;;;;;4.80;3.60;;;16.10;96.50;;;;;;5006274;28;20191;-61
2022/08/09 04:54:00;;;;;;;3.43;3.23;;;16.20;96.70;;;;;;5001324;28;20263;-62
2022/08/09 04:56:26;;;;;;;4.30;3.10;;;16.20;96.60;;;;;;5000860;28;20466;-61
2022/08/09 04:58:52;;;;;;;4.27;3.87;;;16.20;96.30;;;;;;4999165;28;20461;-61
2022/08/09 05:01:18;;;;;;;4.50;3.95;;;16.30;96.20;;;;;;5008121;28;20457;-62
2022/08/09 05:03:44;;;;;;;4.17;3.87;;;16.40;96.10;;;;;;5009845;28;20178;-63
2022/08/09 05:06:11;;;;;;;4.33;4.00;;;16.50;96.00;;;;;;5007937;28;20179;-63
2022/08/09 05:08:36;;;;;;;4.00;3.65;;;16.60;95.80;;;;;;5013365;28;20273;-62
2022/08/09 05:11:03;;;;;;;5.70;4.00;;;16.60;95.60;;;;;;5006940;28;20921;-61
2022/08/09 05:13:29;;;;;;;4.13;3.72;;;16.60;95.70;;;;;;5001132;28;20985;-61
2022/08/09 05:15:55;;;;;;;5.97;4.20;;;16.60;95.60;;;;;;5004661;28;20215;-61
2022/08/09 05:18:21;;;;;;;3.70;3.40;;;17.00;95.70;;;;;;5008713;28;20465;-62
2022/08/09 05:20:46;;;;;;;4.20;3.90;;;16.90;95.30;;;;;;5007299;28;20183;-62
2022/08/09 05:23:12;;;;;;;4.63;4.23;;;17.00;95.00;;;;;;5008349;28;20194;-62
2022/08/09 05:25:38;;;;;;;4.87;4.00;;;17.00;95.10;;;;;;5005161;28;20234;-62
2022/08/09 05:28:04;;;;;;;4.53;4.20;;;17.20;95.00;;;;;;5009045;28;20489;-62
2022/08/09 05:30:30;;;;;;;5.68;3.95;;;17.20;94.70;;;;;;5006312;28;20194;-62
2022/08/09 05:32:56;;;;;;;7.07;4.10;;;17.10;94.80;;;;;;5009974;28;20191;-73
2022/08/09 05:35:21;;;;;;;4.23;3.83;;;17.40;94.80;;;;;;5010892;28;20230;-74
2022/08/09 05:37:50;;;;;;;4.00;3.70;;;17.50;94.30;;;;;;5012446;28;20222;-72
2022/08/09 05:40:15;;;;;;;4.85;3.55;;;17.60;94.60;;;;;;5014387;28;20178;-73
2022/08/09 05:42:41;;;;;;;4.27;3.87;;;17.90;94.70;;;;;;5007532;28;20187;-75
2022/08/09 05:45:07;;;;;;;5.03;4.30;;;17.70;94.10;;;;;;5013545;28;20655;-73
2022/08/09 05:47:33;;;;;;;6.05;4.40;;;17.80;94.10;;;;;;5009652;28;20587;-75
2022/08/09 05:49:58;;;;;;;4.40;4.00;;;17.80;93.90;;;;;;5011920;28;20187;-67
2022/08/09 05:52:24;;;;;;;6.23;5.73;;;18.00;93.90;;;;;;5006351;28;20625;-72
2022/08/09 05:54:50;;;;;;;4.30;3.90;;;18.10;93.80;;;;;;5011402;28;20610;-71
2022/08/09 05:57:15;;;;;;;4.47;4.07;;;18.30;93.80;;;;;;5008376;28;20235;-70
2022/08/09 05:59:41;;;;;;;4.80;4.07;;;18.60;93.80;;;;;;5010727;28;20183;-66
2022/08/09 06:02:08;;;;;;;5.03;3.77;;;18.60;92.50;;;;;;5012296;28;20195;-66
2022/08/09 06:04:35;;;;;;;4.07;3.67;;;18.70;92.20;;;;;;5011778;28;20249;-68
2022/08/09 06:07:02;;;;;;;4.10;3.70;;;18.80;91.50;;;;;;5002077;28;20208;-68
2022/08/09 06:09:28;;;;;;;4.45;4.05;;;19.40;91.40;;;;;;5012864;28;20268;-70
2022/08/09 06:11:53;;;;;;;4.17;3.77;;;19.10;90.40;;;;;;5004990;28;20298;-68
2022/08/09 06:14:19;;;;;;;4.40;4.00;;;19.20;90.30;;;;;;5011091;28;20236;-68
2022/08/09 06:16:45;;;;;;;4.30;3.77;;;19.40;90.10;;;;;;5009544;28;20230;-67
2022/08/09 06:19:13;;;;;;;5.17;4.50;;;19.50;89.60;;;;;;5006584;28;20203;-67
2022/08/09 06:21:39;;;;;;;4.15;3.80;;;19.70;89.10;;;;;;5004739;28;20648;-75
2022/08/09 06:24:05;;;;;;;4.20;3.85;;;19.80;89.70;;;;;;5007049;28;20203;-77
2022/08/09 06:26:33;;;;;;;6.30;5.13;;;20.10;90.50;;;;;;5006951;28;20694;-75
2022/08/09 06:28:59;;;;;;;5.38;4.88;;;20.30;90.10;;;;;;5009666;28;20473;-72
2022/08/09 06:31:24;;;;;;;7.40;5.70;;;20.40;88.40;;;;;;5022940;28;20187;-74
2022/08/09 06:33:50;;;;;;;5.50;5.00;;;20.50;88.30;;;;;;5010255;28;20441;-74
2022/08/09 06:36:15;;;;;;;8.13;7.43;;;20.60;87.70;;;;;;5009303;28;20574;-78
2022/08/09 06:38:42;;;;;;;7.53;5.37;;;20.60;87.20;;;;;;5010202;28;20234;-76
2022/08/09 06:41:07;;;;;;;9.13;5.93;;;20.70;86.60;;;;;;5009483;28;20175;-75
2022/08/09 06:43:33;;;;;;;6.90;5.93;;;20.80;86.50;;;;;;5011454;28;20682;-76
2022/08/09 06:45:58;;;;;;;7.03;6.33;;;20.80;86.30;;;;;;4997282;28;20184;-77
2022/08/09 06:48:24;;;;;;;9.70;6.47;;;21.00;86.00;;;;;;5010188;28;20297;-78
2022/08/09 06:50:50;;;;;;;8.07;4.77;;;20.90;85.70;;;;;;5011432;28;20206;-79
2022/08/09 06:53:15;;;;;;;9.23;7.03;;;21.10;85.60;;;;;;5006449;28;20274;-77
2022/08/09 06:55:41;;;;;;;6.20;5.70;;;21.30;86.60;;;;;;5007424;28;20654;-77
2022/08/09 06:58:07;;;;;;;5.97;5.20;;;21.40;84.20;;;;;;5010380;28;20198;-79
2022/08/09 07:00:34;;;;;;;6.23;5.23;;;21.60;84.10;;;;;;5005018;28;20202;-78
2022/08/09 07:03:00;;;;;;;6.97;5.93;;;21.80;83.70;;;;;;5001907;28;20190;-72
2022/08/09 07:05:26;;;;;;;7.07;6.37;;;21.80;81.80;;;;;;5009747;28;20437;-74
2022/08/09 07:07:53;;;;;;;8.00;6.73;;;22.10;81.40;;;;;;5006547;28;20473;-71
2022/08/09 07:10:20;;;;;;;7.63;5.93;;;22.50;80.10;;;;;;5012672;28;20552;-72
2022/08/09 07:12:45;;;;;;;6.73;6.03;;;23.80;77.40;;;;;;5008174;28;20500;-73
2022/08/09 07:15:11;;;;;;;6.20;5.60;;;26.00;69.30;;;;;;5011371;28;20458;-70
2022/08/09 07:17:36;;;;;;;5.50;5.00;;;28.50;61.00;;;;;;5004203;28;20214;-71
2022/08/09 07:20:03;;;;;;;4.93;4.57;;;31.50;54.20;;;;;;5007251;28;20192;-69
2022/08/09 07:22:28;;;;;;;5.90;4.73;;;34.10;47.70;;;;;;4998624;28;20209;-72
2022/08/09 07:24:54;;;;;;;4.90;4.40;;;36.60;42.90;;;;;;5011870;28;20445;-68
2022/08/09 07:27:19;;;;;;;4.37;3.97;;;37.60;38.40;;;;;;5008054;28;20363;-67
2022/08/09 07:29:45;;;;;;;6.23;4.43;;;39.10;36.50;;;;;;5008181;28;20269;-68
2022/08/09 07:32:10;;;;;;;5.97;5.00;;;40.40;33.70;;;;;;5002731;28;20663;-68
2022/08/09 07:34:36;;;;;;;5.50;4.83;;;41.40;31.50;;;;;;5009042;28;20218;-68
2022/08/09 07:37:02;;;;;;;7.60;4.77;;;41.50;30.50;;;;;;5009859;28;20250;-69
2022/08/09 07:39:27;;;;;;;4.73;4.33;;;40.20;31.40;;;;;;5006616;28;20210;-70
2022/08/09 07:41:53;;;;;;;5.50;4.53;;;41.90;30.00;;;;;;5003013;28;20235;-68
2022/08/09 07:44:19;;;;;;;5.70;4.20;;;42.10;29.10;;;;;;5006119;28;20193;-68
2022/08/09 07:46:46;;;;;;;5.33;4.60;;;42.30;28.90;;;;;;5004817;28;20196;-69
2022/08/09 07:49:12;;;;;;;4.83;4.53;;;42.30;28.20;;;;;;5003825;28;20221;-67
2022/08/09 07:51:37;;;;;;;4.50;4.10;;;42.60;28.30;;;;;;5001710;28;20453;-70
2022/08/09 07:54:03;;;;;;;5.27;4.53;;;43.10;27.70;;;;;;5006379;28;20194;-68
2022/08/09 07:56:29;;;;;;;5.97;4.03;;;39.50;28.70;;;;;;5006198;28;20217;-68
2022/08/09 07:58:55;;;;;;;4.80;4.33;;;40.30;29.70;;;;;;5010034;28;20217;-69
2022/08/09 08:01:20;;;;;;;4.87;4.47;;;41.00;28.90;;;;;;5009101;28;20656;-68
2022/08/09 08:03:46;;;;;;;5.10;4.60;;;41.70;28.50;;;;;;5006559;28;20203;-71
2022/08/09 08:06:11;;;;;;;4.00;3.70;;;42.20;28.30;;;;;;5009136;28;20187;-69
2022/08/09 08:08:37;;;;;;;3.83;3.50;;;43.20;27.50;;;;;;5009076;28;20218;-69
2022/08/09 08:11:03;;;;;;;4.67;4.27;;;44.00;26.90;;;;;;5007288;28;20186;-70
2022/08/09 08:13:28;;;;;;;6.03;3.90;;;44.70;26.50;;;;;;5008317;28;20229;-67
2022/08/09 08:15:54;;;;;;;6.00;3.97;;;44.90;26.00;;;;;;5008853;28;20246;-67
2022/08/09 08:18:19;;;;;;;4.83;4.33;;;44.40;26.00;;;;;;5009032;28;20289;-69
2022/08/09 08:20:45;;;;;;;4.20;3.80;;;43.10;26.90;;;;;;5009739;28;20191;-67
2022/08/09 08:23:11;;;;;;;3.53;3.20;;;42.30;27.00;;;;;;5006734;28;20269;-69
2022/08/09 08:25:37;;;;;;;3.87;3.60;;;42.90;27.10;;;;;;5009016;28;20199;-69
2022/08/09 08:28:03;;;;;;;4.10;3.70;;;42.90;26.60;;;;;;5009912;28;20203;-68
2022/08/09 08:30:32;;;;;;;5.13;4.73;;;43.20;26.60;;;;;;5006065;28;20457;-68
2022/08/09 08:32:57;;;;;;;4.60;4.30;;;42.80;26.40;;;;;;5009045;28;20460;-67
2022/08/09 08:35:23;;;;;;;3.87;3.57;;;41.50;27.40;;;;;;5006817;28;20473;-68
2022/08/09 08:37:49;;;;;;;7.30;6.07;;;42.30;27.50;;;;;;5003844;28;20234;-68
2022/08/09 08:40:16;;;;;;;3.80;3.57;;;42.00;27.80;;;;;;5006697;28;20207;-68
2022/08/09 08:42:42;;;;;;;4.67;3.53;;;42.50;27.20;;;;;;5003932;28;20442;-66
2022/08/09 08:45:10;;;;;;;3.87;3.63;;;43.10;27.00;;;;;;5008254;28;20461;-69
2022/08/09 08:47:36;;;;;;;4.03;3.73;;;43.10;26.70;;;;;;5007444;28;20477;-67
2022/08/09 08:50:02;;;;;;;4.00;3.57;;;43.20;26.70;;;;;;5010008;28;20453;-67
2022/08/09 08:52:28;;;;;;;3.27;2.90;;;42.50;26.40;;;;;;5002823;28;20317;-66
2022/08/09 08:54:57;;;;;;;4.00;3.77;;;40.70;27.80;;;;;;5001987;28;20537;-69
2022/08/09 08:57:24;;;;;;;3.63;3.33;;;38.80;28.60;;;;;;5005803;28;20502;-68
2022/08/09 08:59:51;;;;;;;3.60;3.30;;;38.30;29.50;;;;;;5007586;28;20448;-69
2022/08/09 09:02:25;;;;;;;3.70;3.50;;;39.60;29.40;;;;;;5007833;28;20441;-71
2022/08/09 09:04:52;;;;;;;5.30;4.60;;;40.80;28.40;;;;;;5008606;28;20466;-69
2022/08/09 09:07:19;;;;;;;3.87;3.57;;;39.90;28.70;;;;;;5010531;28;20540;-66
2022/08/09 09:09:46;;;;;;;3.20;3.00;;;39.90;28.20;;;;;;5013164;28;20841;-70
2022/08/09 09:12:16;;;;;;;3.70;3.27;;;40.50;28.30;;;;;;5010666;28;20445;-70
2022/08/09 09:14:43;;;;;;;5.10;4.10;;;40.60;28.00;;;;;;5009398;28;20446;-65
2022/08/09 09:17:09;;;;;;;3.83;3.57;;;41.80;27.40;;;;;;5011571;28;20473;-70
2022/08/09 09:19:34;;;;;;;3.37;3.17;;;42.30;27.00;;;;;;5010808;28;20852;-69
2022/08/09 09:22:07;;;;;;;2.90;2.80;;;42.50;26.40;;;;;;5011961;28;20450;-68
2022/08/09 09:24:36;;;;;;;4.00;3.47;;;42.30;26.60;;;;;;5005197;28;20222;-68
2022/08/09 09:27:03;;;;;;;3.20;2.90;;;41.90;26.90;;;;;;5009661;28;20457;-68
2022/08/09 09:29:30;;;;;;;3.90;3.60;;;42.60;26.50;;;;;;5010980;28;20445;-68
2022/08/09 09:31:56;;;;;;;3.40;3.00;;;40.90;26.10;;;;;;5011211;28;20460;-70
2022/08/09 09:34:22;;;;;;;3.90;3.23;;;40.60;27.30;;;;;;5010086;28;20441;-69
2022/08/09 09:36:48;;;;;;;3.43;3.13;;;40.00;28.00;;;;;;5011701;28;20706;-70
2022/08/09 09:39:13;;;;;;;3.40;3.10;;;39.80;27.90;;;;;;5010689;28;20214;-71
2022/08/09 09:41:39;;;;;;;3.70;3.40;;;38.20;28.50;;;;;;5006591;28;20191;-62
2022/08/09 09:44:06;;;;;;;3.87;3.13;;;37.20;29.20;;;;;;5009715;28;20183;-62
2022/08/09 09:46:37;;;;;;;3.90;2.80;;;36.60;30.60;;;;;;5006403;28;20544;-62
2022/08/09 09:49:11;;;;;;;2.70;2.50;;;35.70;30.00;;;;;;5009437;28;20845;-62
2022/08/09 09:51:39;;;;;;;3.20;3.00;;;34.80;30.30;;;;;;5007410;28;20522;-62
2022/08/09 09:54:09;;;;;;;2.80;2.60;;;34.90;31.10;;;;;;5010869;28;20941;-62
2022/08/09 09:56:37;;;;;;;3.43;3.13;;;34.80;31.00;;;;;;5011347;28;20491;-63
2022/08/09 09:59:03;;;;;;;3.10;2.90;;;35.20;31.00;;;;;;5015981;28;20457;-62
2022/08/09 10:01:29;;;;;;;3.07;2.73;;;35.10;30.70;;;;;;4998216;28;20465;-62
2022/08/09 10:03:54;;;;;;;3.40;3.20;;;35.70;30.50;;;;;;5012242;28;20999;-63
2022/08/09 10:06:20;;;;;;;2.90;2.70;;;35.90;30.70;;;;;;5010682;28;20194;-63
2022/08/09 10:08:47;;;;;;;2.90;2.70;;;35.70;30.60;;;;;;5011883;28;20249;-63
2022/08/09 10:11:17;;;;;;;3.20;3.00;;;35.80;30.70;;;;;;5011876;28;20187;-63
2022/08/09 10:13:43;;;;;;;2.97;2.77;;;35.60;30.90;;;;;;5012264;28;20446;-62
2022/08/09 10:16:09;;;;;;;2.70;2.50;;;34.80;32.20;;;;;;5010321;28;20556;-62
2022/08/09 10:18:35;;;;;;;3.00;2.70;;;33.40;33.40;;;;;;5010464;28;20477;-63
2022/08/09 10:21:10;;;;;;;3.40;3.20;;;32.60;34.30;;;;;;5014208;28;20980;-63
2022/08/09 10:23:36;;;;;;;2.90;2.70;;;31.30;35.60;;;;;;5002498;28;20463;-64
2022/08/09 10:26:03;;;;;;;3.20;2.97;;;30.90;37.00;;;;;;5011247;28;20459;-63
2022/08/09 10:28:30;;;;;;;3.10;2.90;;;30.80;37.30;;;;;;5011659;28;20532;-62
2022/08/09 10:30:57;;;;;;;4.13;3.83;;;30.60;37.30;;;;;;5007076;28;20445;-63
2022/08/09 10:33:23;;;;;;;3.40;2.73;;;30.50;36.80;;;;;;5012134;28;20474;-63
2022/08/09 10:35:49;;;;;;;2.80;2.60;;;30.50;37.20;;;;;;5011134;28;20466;-63
2022/08/09 10:38:16;;;;;;;2.87;2.63;;;30.40;37.40;;;;;;5010476;28;20465;-63
2022/08/09 10:40:43;;;;;;;4.57;3.63;;;30.30;37.70;;;;;;5011475;28;20496;-63
2022/08/09 10:43:09;;;;;;;4.03;3.73;;;30.30;37.90;;;;;;5011242;28;20782;-63
2022/08/09 10:45:35;;;;;;;2.83;2.67;;;30.10;37.90;;;;;;5011014;28;20467;-63
2022/08/09 10:48:13;;;;;;;6.60;6.00;;;30.00;38.10;;;;;;5011637;28;20462;-63
2022/08/09 10:51:11;;;;;;;3.93;3.07;;;29.90;39.10;;;;;;5011196;28;20552;-63
2022/08/09 10:54:04;;;;;;;3.33;2.90;;;29.90;38.10;;;;;;5007479;28;20449;-63
2022/08/09 10:56:32;;;;;;;5.00;4.70;;;29.80;38.10;;;;;;5011112;28;20476;-63
2022/08/09 10:59:00;;;;;;;3.30;3.10;;;29.80;38.30;;;;;;5011334;28;20540;-62
2022/08/09 11:01:38;;;;;;;4.20;3.90;;;29.80;38.20;;;;;;5008800;28;20464;-62
2022/08/09 11:04:19;;;;;;;3.53;3.20;;;29.90;38.50;;;;;;5026682;28;20525;-63
2022/08/09 11:07:08;;;;;;;2.83;2.67;;;29.80;38.30;;;;;;5010252;28;20579;-62
2022/08/09 11:09:36;;;;;;;3.67;3.47;;;29.70;38.40;;;;;;5011337;28;20941;-64
2022/08/09 11:12:16;;;;;;;3.00;2.80;;;29.70;37.90;;;;;;4998557;28;20451;-63
2022/08/09 11:14:46;;;;;;;4.30;3.90;;;29.70;38.00;;;;;;5005316;28;20454;-62
2022/08/09 11:17:14;;;;;;;2.57;2.43;;;30.00;38.00;;;;;;5010678;28;20473;-62
2022/08/09 11:19:49;;;;;;;2.30;2.20;;;30.30;36.00;;;;;;5010495;28;20517;-63
2022/08/09 11:22:16;;;;;;;2.70;2.50;;;30.70;35.00;;;;;;5010894;28;20568;-63
2022/08/09 11:24:56;;;;;;;2.80;2.60;;;31.00;34.50;;;;;;5011215;28;20445;-61
2022/08/09 11:27:35;;;;;;;2.13;2.03;;;31.00;34.10;;;;;;5010434;28;20591;-63
2022/08/09 11:30:02;;;;;;;3.33;2.47;;;31.30;33.80;;;;;;5010226;28;20953;-62
2022/08/09 11:32:44;;;;;;;2.43;2.27;;;31.30;34.00;;;;;;5010105;28;20447;-63
2022/08/09 11:35:16;;;;;;;3.00;2.70;;;31.90;32.90;;;;;;5009375;28;20440;-62
2022/08/09 11:37:43;;;;;;;2.43;2.23;;;32.80;32.10;;;;;;5009715;28;20470;-62
2022/08/09 11:40:12;;;;;;;4.90;3.27;;;32.80;31.50;;;;;;5018284;28;20425;-63
2022/08/09 11:42:45;;;;;;;2.37;2.20;;;33.60;30.90;;;;;;5006192;28;20446;-62
2022/08/09 11:45:53;;;;;;;4.00;3.53;;;33.70;30.60;;;;;;5004965;28;21003;-62
2022/08/09 11:48:46;;;;;;;3.17;2.87;;;34.50;30.40;;;;;;4990056;28;20473;-62
2022/08/09 11:51:12;;;;;;;2.50;2.30;;;35.30;30.00;;;;;;4994417;28;20461;-62
2022/08/09 11:53:38;;;;;;;1.90;1.80;;;35.20;28.80;;;;;;5010576;28;20442;-62
2022/08/09 11:56:13;;;;;;;3.63;2.20;;;34.30;27.60;;;;;;5010502;28;20219;-62
2022/08/09 11:58:43;;;;;;;3.60;2.90;;;34.10;28.40;;;;;;5010079;28;20812;-62
2022/08/09 12:01:10;;;;;;;3.90;2.47;;;34.10;29.60;;;;;;5002110;28;20463;-62
2022/08/09 12:03:38;;;;;;;2.40;2.20;;;33.90;30.20;;;;;;5008834;28;20429;-62
2022/08/09 12:06:18;;;;;;;2.60;2.10;;;33.30;30.20;;;;;;5009019;28;20507;-62
2022/08/09 12:08:53;;;;;;;3.90;2.47;;;33.10;30.80;;;;;;4998520;28;20801;-62
2022/08/09 12:11:20;;;;;;;3.10;2.80;;;32.70;31.20;;;;;;5008725;28;20859;-62
2022/08/09 12:13:49;;;;;;;2.77;2.57;;;32.20;32.90;;;;;;5010482;28;20451;-62
2022/08/09 12:16:18;;;;;;;2.50;2.30;;;31.70;33.30;;;;;;5008805;28;20471;-62
2022/08/09 12:18:46;;;;;;;3.27;2.90;;;31.30;33.90;;;;;;5010359;28;20463;-63
2022/08/09 12:21:13;;;;;;;2.57;2.40;;;31.00;34.60;;;;;;5007822;28;20486;-63
2022/08/09 12:23:46;;;;;;;2.93;2.67;;;31.10;34.30;;;;;;5001162;28;20823;-63
2022/08/09 12:26:12;;;;;;;3.17;2.57;;;31.00;34.80;;;;;;5009983;28;20502;-62
2022/08/09 12:28:45;;;;;;;2.33;2.20;;;30.90;34.80;;;;;;5006750;28;20898;-62
2022/08/09 12:31:27;;;;;;;2.70;2.50;;;30.80;35.10;;;;;;5005673;28;20454;-62
2022/08/09 12:33:54;;;;;;;2.90;2.70;;;30.40;35.00;;;;;;5006203;28;20913;-66
2022/08/09 12:36:22;;;;;;;2.90;2.60;;;30.40;35.30;;;;;;5006393;28;20482;-69
2022/08/09 12:38:52;;;;;;;2.97;2.77;;;30.40;35.50;;;;;;5001486;28;20513;-70
2022/08/09 12:41:26;;;;;;;2.73;2.60;;;30.30;35.90;;;;;;5004420;28;20445;-66
2022/08/09 12:43:53;;;;;;;2.83;2.63;;;30.30;36.00;;;;;;5006506;28;20834;-67
2022/08/09 12:46:19;;;;;;;2.27;2.13;;;30.20;36.00;;;;;;5004195;28;20453;-67
2022/08/09 12:48:45;;;;;;;3.10;2.90;;;30.10;36.10;;;;;;5007379;28;20859;-67
2022/08/09 12:51:11;;;;;;;2.33;2.13;;;30.10;36.40;;;;;;5006765;28;20513;-67
2022/08/09 12:53:39;;;;;;;2.87;2.67;;;30.10;36.60;;;;;;5008804;28;20454;-67
2022/08/09 12:56:10;;;;;;;2.40;2.30;;;30.10;36.50;;;;;;5008290;28;21154;-67